createdAt,value
2019-04-01T00:00:06.929Z,1020.50
2019-04-01T00:01:07.722Z,1020.49
2019-04-01T00:02:06.956Z,1020.48
2019-04-01T00:03:06.978Z,1020.46
2019-04-01T00:04:06.985Z,1020.43
2019-04-01T00:05:06.996Z,1020.42
2019-04-01T00:06:07.017Z,1020.44
2019-04-01T00:07:07.025Z,1020.38
2019-04-01T00:08:07.046Z,1020.41
2019-04-01T00:09:07.053Z,1020.38
2019-04-01T00:10:07.070Z,1020.42
2019-04-01T00:11:07.086Z,1020.40
2019-04-01T00:12:07.097Z,1020.37
2019-04-01T00:13:07.115Z,1020.38
2019-04-01T00:14:07.126Z,1020.38
2019-04-01T00:15:07.142Z,1020.30
2019-04-01T00:16:07.152Z,1020.29
2019-04-01T00:17:07.169Z,1020.29
2019-04-01T00:18:07.187Z,1020.26
2019-04-01T00:19:07.196Z,1020.34
2019-04-01T00:20:07.207Z,1020.31
2019-04-01T00:21:07.222Z,1020.30
2019-04-01T00:22:07.237Z,1020.28
2019-04-01T00:23:07.416Z,1020.31
2019-04-01T00:24:07.267Z,1020.33
2019-04-01T00:25:07.286Z,1020.31
2019-04-01T00:26:07.293Z,1020.25
2019-04-01T00:27:07.311Z,1020.25
2019-04-01T00:28:07.324Z,1020.24
2019-04-01T00:29:07.336Z,1020.23
2019-04-01T00:30:07.354Z,1020.25
2019-04-01T00:31:07.364Z,1020.24
2019-04-01T00:32:07.378Z,1020.25
2019-04-01T00:33:07.399Z,1020.28
2019-04-01T00:34:07.411Z,1020.23
2019-04-01T00:35:07.421Z,1020.27
2019-04-01T00:36:07.437Z,1020.29
2019-04-01T00:37:07.452Z,1020.29
2019-04-01T00:38:07.462Z,1020.27
2019-04-01T00:39:07.488Z,1020.25
2019-04-01T00:40:07.490Z,1020.28
2019-04-01T00:41:07.511Z,1020.29
2019-04-01T00:42:07.522Z,1020.30
2019-04-01T00:43:07.536Z,1020.24
2019-04-01T00:44:07.571Z,1020.29
2019-04-01T00:45:07.563Z,1020.28
2019-04-01T00:46:07.578Z,1020.26
2019-04-01T00:47:07.590Z,1020.25
2019-04-01T00:48:07.608Z,1020.22
2019-04-01T00:49:07.624Z,1020.23
2019-04-01T00:50:07.634Z,1020.24
2019-04-01T00:51:07.646Z,1020.16
2019-04-01T00:52:07.662Z,1020.17
2019-04-01T00:53:07.673Z,1020.16
2019-04-01T00:54:07.690Z,1020.14
2019-04-01T00:55:07.711Z,1020.12
2019-04-01T00:56:07.717Z,1020.07
2019-04-01T00:57:07.737Z,1020.10
2019-04-01T00:58:07.747Z,1020.11
2019-04-01T00:59:07.764Z,1020.07
2019-04-01T01:00:07.775Z,1020.10
2019-04-01T01:01:07.789Z,1020.08
2019-04-01T01:02:07.803Z,1020.15
2019-04-01T01:03:07.817Z,1020.09
2019-04-01T01:04:07.831Z,1020.11
2019-04-01T01:05:07.845Z,1020.09
2019-04-01T01:06:07.856Z,1020.04
2019-04-01T01:07:07.874Z,1020.01
2019-04-01T01:08:07.888Z,1020.02
2019-04-01T01:09:07.901Z,1020.02
2019-04-01T01:10:07.916Z,1019.98
2019-04-01T01:11:07.927Z,1020.02
2019-04-01T01:12:07.944Z,1020.03
2019-04-01T01:13:07.965Z,1020.01
2019-04-01T01:14:07.977Z,1019.99
2019-04-01T01:15:07.986Z,1020.01
2019-04-01T01:16:07.997Z,1019.99
2019-04-01T01:17:08.018Z,1019.95
2019-04-01T01:18:08.025Z,1019.95
2019-04-01T01:19:08.042Z,1019.94
2019-04-01T01:20:08.059Z,1019.95
2019-04-01T01:21:08.068Z,1019.92
2019-04-01T01:22:08.084Z,1019.91
2019-04-01T01:23:08.096Z,1019.92
2019-04-01T01:24:08.109Z,1019.86
2019-04-01T01:25:08.133Z,1019.88
2019-04-01T01:26:08.139Z,1019.88
2019-04-01T01:27:08.155Z,1019.87
2019-04-01T01:28:08.168Z,1019.84
2019-04-01T01:29:08.181Z,1019.79
2019-04-01T01:30:08.197Z,1019.81
2019-04-01T01:31:08.207Z,1019.81
2019-04-01T01:32:08.228Z,1019.81
2019-04-01T01:33:08.235Z,1019.78
2019-04-01T01:34:08.255Z,1019.80
2019-04-01T01:35:08.266Z,1019.83
2019-04-01T01:36:08.280Z,1019.77
2019-04-01T01:37:08.294Z,1019.83
2019-04-01T01:38:08.308Z,1019.77
2019-04-01T01:39:08.319Z,1019.77
2019-04-01T01:40:08.337Z,1019.76
2019-04-01T01:41:08.349Z,1019.72
2019-04-01T01:42:08.363Z,1019.76
2019-04-01T01:43:08.376Z,1019.70
2019-04-01T01:44:08.389Z,1019.72
2019-04-01T01:45:08.406Z,1019.72
2019-04-01T01:46:08.419Z,1019.68
2019-04-01T01:47:08.431Z,1019.67
2019-04-01T01:48:08.447Z,1019.69
2019-04-01T01:49:08.459Z,1019.73
2019-04-01T01:50:08.477Z,1019.67
2019-04-01T01:51:08.490Z,1019.65
2019-04-01T01:52:08.504Z,1019.65
2019-04-01T01:53:08.517Z,1019.65
2019-04-01T01:54:08.534Z,1019.62
2019-04-01T01:55:08.551Z,1019.65
2019-04-01T01:56:08.559Z,1019.65
2019-04-01T01:57:08.571Z,1019.62
2019-04-01T01:58:08.585Z,1019.63
2019-04-01T01:59:08.599Z,1019.61
2019-04-01T02:00:08.619Z,1019.63
2019-04-01T02:01:08.627Z,1019.62
2019-04-01T02:02:08.643Z,1019.66
2019-04-01T02:03:08.657Z,1019.67
2019-04-01T02:04:08.676Z,1019.64
2019-04-01T02:05:08.691Z,1019.60
2019-04-01T02:06:08.700Z,1019.63
2019-04-01T02:07:08.717Z,1019.70
2019-04-01T02:08:08.727Z,1019.66
2019-04-01T02:09:08.739Z,1019.63
2019-04-01T02:10:08.753Z,1019.63
2019-04-01T02:11:08.773Z,1019.56
2019-04-01T02:12:08.784Z,1019.59
2019-04-01T02:13:08.796Z,1019.62
2019-04-01T02:14:08.809Z,1019.59
2019-04-01T02:15:08.833Z,1019.63
2019-04-01T02:16:08.836Z,1019.58
2019-04-01T02:17:08.851Z,1019.55
2019-04-01T02:18:08.865Z,1019.54
2019-04-01T02:19:08.882Z,1019.56
2019-04-01T02:20:08.893Z,1019.54
2019-04-01T02:21:08.908Z,1019.58
2019-04-01T02:22:08.928Z,1019.53
2019-04-01T02:23:08.934Z,1019.54
2019-04-01T02:24:08.948Z,1019.51
2019-04-01T02:25:08.964Z,1019.53
2019-04-01T02:26:08.981Z,1019.50
2019-04-01T02:27:08.991Z,1019.50
2019-04-01T02:28:09.006Z,1019.52
2019-04-01T02:29:09.020Z,1019.48
2019-04-01T02:30:09.035Z,1019.49
2019-04-01T02:31:09.047Z,1019.55
2019-04-01T02:32:09.072Z,1019.52
2019-04-01T02:33:09.076Z,1019.52
2019-04-01T02:34:09.094Z,1019.50
2019-04-01T02:35:09.118Z,1019.52
2019-04-01T02:36:09.116Z,1019.49
2019-04-01T02:37:09.129Z,1019.48
2019-04-01T02:38:09.169Z,1019.51
2019-04-01T02:39:09.172Z,1019.53
2019-04-01T02:40:09.178Z,1019.50
2019-04-01T02:41:09.292Z,1019.48
2019-04-01T02:42:09.205Z,1019.46
2019-04-01T02:43:09.215Z,1019.50
2019-04-01T02:44:09.237Z,1019.52
2019-04-01T02:45:09.242Z,1019.49
2019-04-01T02:46:09.261Z,1019.47
2019-04-01T02:47:09.289Z,1019.51
2019-04-01T02:48:09.281Z,1019.49
2019-04-01T02:49:09.298Z,1019.49
2019-04-01T02:50:09.328Z,1019.48
2019-04-01T02:51:09.332Z,1019.48
2019-04-01T02:52:09.342Z,1019.47
2019-04-01T02:53:09.354Z,1019.48
2019-04-01T02:54:09.374Z,1019.46
2019-04-01T02:55:09.381Z,1019.47
2019-04-01T02:56:09.394Z,1019.46
2019-04-01T02:57:09.412Z,1019.40
2019-04-01T02:58:09.421Z,1019.41
2019-04-01T02:59:09.438Z,1019.41
2019-04-01T03:00:09.455Z,1019.40
2019-04-01T03:01:09.469Z,1019.42
2019-04-01T03:02:09.477Z,1019.42
2019-04-01T03:03:09.492Z,1019.38
2019-04-01T03:04:09.516Z,1019.39
2019-04-01T03:05:09.517Z,1019.38
2019-04-01T03:06:09.534Z,1019.38
2019-04-01T03:07:09.547Z,1019.41
2019-04-01T03:08:09.559Z,1019.40
2019-04-01T03:09:09.586Z,1019.39
2019-04-01T03:10:09.614Z,1019.41
2019-04-01T03:11:11.064Z,1019.40
2019-04-01T03:12:09.686Z,1019.37
2019-04-01T03:13:09.629Z,1019.33
2019-04-01T03:14:09.645Z,1019.37
2019-04-01T03:15:09.657Z,1019.38
2019-04-01T03:16:09.671Z,1019.36
2019-04-01T03:17:09.685Z,1019.34
2019-04-01T03:18:09.698Z,1019.31
2019-04-01T03:19:09.725Z,1019.30
2019-04-01T03:20:09.783Z,1019.31
2019-04-01T03:21:09.739Z,1019.29
2019-04-01T03:22:09.751Z,1019.33
2019-04-01T03:23:09.773Z,1019.33
2019-04-01T03:24:09.780Z,1019.30
2019-04-01T03:25:09.802Z,1019.28
2019-04-01T03:26:09.816Z,1019.31
2019-04-01T03:27:09.821Z,1019.29
2019-04-01T03:28:09.833Z,1019.29
2019-04-01T03:29:09.851Z,1019.24
2019-04-01T03:30:09.896Z,1019.23
2019-04-01T03:31:09.878Z,1019.28
2019-04-01T03:32:09.892Z,1019.27
2019-04-01T03:33:09.914Z,1019.25
2019-04-01T03:34:09.916Z,1019.24
2019-04-01T03:35:09.933Z,1019.29
2019-04-01T03:36:09.955Z,1019.28
2019-04-01T03:37:09.961Z,1019.28
2019-04-01T03:38:09.987Z,1019.25
2019-04-01T03:39:09.987Z,1019.28
2019-04-01T03:40:10.010Z,1019.24
2019-04-01T03:41:10.038Z,1019.20
2019-04-01T03:42:10.030Z,1019.19
2019-04-01T03:43:10.039Z,1019.22
2019-04-01T03:44:10.054Z,1019.22
2019-04-01T03:45:10.070Z,1019.23
2019-04-01T03:46:10.083Z,1019.25
2019-04-01T03:47:10.100Z,1019.22
2019-04-01T03:48:10.110Z,1019.22
2019-04-01T03:49:10.120Z,1019.23
2019-04-01T03:50:10.135Z,1019.26
2019-04-01T03:51:10.154Z,1019.22
2019-04-01T03:52:10.721Z,1019.19
2019-04-01T03:53:10.175Z,1019.20
2019-04-01T03:54:10.190Z,1019.15
2019-04-01T03:55:10.204Z,1019.20
2019-04-01T03:56:10.220Z,1019.13
2019-04-01T03:57:10.233Z,1019.18
2019-04-01T03:58:10.246Z,1019.14
2019-04-01T03:59:10.258Z,1019.13
2019-04-01T04:00:10.276Z,1019.08
2019-04-01T04:01:10.293Z,1019.09
2019-04-01T04:02:10.300Z,1019.13
2019-04-01T04:03:10.314Z,1019.15
2019-04-01T04:04:10.325Z,1019.15
2019-04-01T04:05:10.339Z,1019.10
2019-04-01T04:06:10.350Z,1019.12
2019-04-01T04:07:10.370Z,1019.14
2019-04-01T04:08:10.379Z,1019.10
2019-04-01T04:09:10.391Z,1019.11
2019-04-01T04:10:10.419Z,1019.11
2019-04-01T04:11:10.420Z,1019.10
2019-04-01T04:12:10.432Z,1019.09
2019-04-01T04:13:10.455Z,1019.12
2019-04-01T04:14:10.459Z,1019.09
2019-04-01T04:15:10.472Z,1019.09
2019-04-01T04:16:10.485Z,1019.06
2019-04-01T04:17:10.504Z,1019.09
2019-04-01T04:18:10.519Z,1019.08
2019-04-01T04:19:10.526Z,1019.09
2019-04-01T04:20:10.562Z,1019.10
2019-04-01T04:21:10.554Z,1019.10
2019-04-01T04:22:10.575Z,1019.11
2019-04-01T04:23:10.595Z,1019.12
2019-04-01T04:24:10.954Z,1019.10
2019-04-01T04:25:10.610Z,1019.10
2019-04-01T04:26:10.622Z,1019.13
2019-04-01T04:27:11.259Z,1019.14
2019-04-01T04:28:10.663Z,1019.15
2019-04-01T04:29:10.665Z,1019.14
2019-04-01T04:30:10.678Z,1019.14
2019-04-01T04:31:10.696Z,1019.15
2019-04-01T04:32:10.705Z,1019.17
2019-04-01T04:33:10.717Z,1019.15
2019-04-01T04:34:10.734Z,1019.14
2019-04-01T04:35:10.744Z,1019.18
2019-04-01T04:36:10.762Z,1019.15
2019-04-01T04:37:10.768Z,1019.17
2019-04-01T04:38:10.784Z,1019.20
2019-04-01T04:39:10.798Z,1019.18
2019-04-01T04:40:10.816Z,1019.17
2019-04-01T04:41:10.825Z,1019.15
2019-04-01T04:42:10.838Z,1019.16
2019-04-01T04:43:10.856Z,1019.21
2019-04-01T04:44:10.864Z,1019.22
2019-04-01T04:45:10.881Z,1019.19
2019-04-01T04:46:10.889Z,1019.14
2019-04-01T04:47:10.905Z,1019.15
2019-04-01T04:48:10.917Z,1019.12
2019-04-01T04:49:10.937Z,1019.14
2019-04-01T04:50:10.950Z,1019.11
2019-04-01T04:51:10.957Z,1019.10
2019-04-01T04:52:10.968Z,1019.11
2019-04-01T04:53:10.983Z,1019.10
2019-04-01T04:54:10.995Z,1019.16
2019-04-01T04:55:11.012Z,1019.14
2019-04-01T04:56:11.021Z,1019.18
2019-04-01T04:57:11.035Z,1019.16
2019-04-01T04:58:11.054Z,1019.14
2019-04-01T04:59:11.064Z,1019.20
2019-04-01T05:00:11.074Z,1019.16
2019-04-01T05:01:11.139Z,1019.17
2019-04-01T05:02:11.106Z,1019.18
2019-04-01T05:03:11.118Z,1019.17
2019-04-01T05:04:11.126Z,1019.16
2019-04-01T05:05:11.149Z,1019.16
2019-04-01T05:06:11.155Z,1019.18
2019-04-01T05:07:11.171Z,1019.20
2019-04-01T05:08:11.186Z,1019.22
2019-04-01T05:09:11.198Z,1019.19
2019-04-01T05:10:11.262Z,1019.17
2019-04-01T05:11:11.224Z,1019.17
2019-04-01T05:12:11.235Z,1019.20
2019-04-01T05:13:11.250Z,1019.16
2019-04-01T05:14:11.267Z,1019.16
2019-04-01T05:15:11.275Z,1019.17
2019-04-01T05:16:11.288Z,1019.18
2019-04-01T05:17:11.305Z,1019.17
2019-04-01T05:18:11.315Z,1019.20
2019-04-01T05:19:11.330Z,1019.16
2019-04-01T05:20:11.343Z,1019.15
2019-04-01T05:21:11.358Z,1019.16
2019-04-01T05:22:11.368Z,1019.12
2019-04-01T05:23:11.382Z,1019.16
2019-04-01T05:24:11.397Z,1019.15
2019-04-01T05:25:11.415Z,1019.13
2019-04-01T05:26:11.434Z,1019.15
2019-04-01T05:27:11.436Z,1019.15
2019-04-01T05:28:11.450Z,1019.16
2019-04-01T05:29:11.462Z,1019.16
2019-04-01T05:30:11.481Z,1019.15
2019-04-01T05:31:14.391Z,1019.19
2019-04-01T05:32:11.508Z,1019.19
2019-04-01T05:33:11.515Z,1019.20
2019-04-01T05:34:11.528Z,1019.18
2019-04-01T05:35:11.571Z,1019.23
2019-04-01T05:36:11.555Z,1019.26
2019-04-01T05:37:11.569Z,1019.23
2019-04-01T05:38:11.587Z,1019.26
2019-04-01T05:39:11.597Z,1019.24
2019-04-01T05:40:11.612Z,1019.25
2019-04-01T05:41:11.627Z,1019.27
2019-04-01T05:42:11.636Z,1019.31
2019-04-01T05:43:11.649Z,1019.33
2019-04-01T05:44:11.663Z,1019.30
2019-04-01T05:45:11.684Z,1019.34
2019-04-01T05:46:11.696Z,1019.31
2019-04-01T05:47:11.703Z,1019.35
2019-04-01T05:48:11.723Z,1019.34
2019-04-01T05:49:11.735Z,1019.34
2019-04-01T05:50:11.750Z,1019.33
2019-04-01T05:51:11.763Z,1019.31
2019-04-01T05:52:11.778Z,1019.33
2019-04-01T05:53:11.788Z,1019.34
2019-04-01T05:54:11.802Z,1019.33
2019-04-01T05:55:11.813Z,1019.35
2019-04-01T05:56:11.830Z,1019.38
2019-04-01T05:57:11.843Z,1019.40
2019-04-01T05:58:11.852Z,1019.38
2019-04-01T05:59:11.867Z,1019.36
2019-04-01T06:00:11.886Z,1019.34
2019-04-01T06:01:11.899Z,1019.35
2019-04-01T06:02:11.912Z,1019.36
2019-04-01T06:03:11.926Z,1019.35
2019-04-01T06:04:11.936Z,1019.39
2019-04-01T06:05:11.948Z,1019.41
2019-04-01T06:06:11.973Z,1019.38
2019-04-01T06:07:11.976Z,1019.40
2019-04-01T06:08:11.993Z,1019.39
2019-04-01T06:09:12.003Z,1019.36
2019-04-01T06:10:12.048Z,1019.43
2019-04-01T06:11:12.037Z,1019.44
2019-04-01T06:12:12.046Z,1019.45
2019-04-01T06:13:12.059Z,1019.42
2019-04-01T06:14:12.074Z,1019.39
2019-04-01T06:15:12.086Z,1019.40
2019-04-01T06:16:12.107Z,1019.40
2019-04-01T06:17:12.175Z,1019.45
2019-04-01T06:18:12.128Z,1019.40
2019-04-01T06:19:12.142Z,1019.42
2019-04-01T06:20:12.153Z,1019.46
2019-04-01T06:21:12.177Z,1019.42
2019-04-01T06:22:12.181Z,1019.42
2019-04-01T06:23:12.197Z,1019.38
2019-04-01T06:24:12.213Z,1019.43
2019-04-01T06:25:12.248Z,1019.46
2019-04-01T06:26:12.236Z,1019.47
2019-04-01T06:27:12.567Z,1019.42
2019-04-01T06:28:12.265Z,1019.39
2019-04-01T06:29:12.280Z,1019.42
2019-04-01T06:30:12.295Z,1019.39
2019-04-01T06:31:12.305Z,1019.41
2019-04-01T06:32:12.325Z,1019.44
2019-04-01T06:33:12.335Z,1019.47
2019-04-01T06:34:12.347Z,1019.46
2019-04-01T06:35:12.369Z,1019.46
2019-04-01T06:36:12.380Z,1019.46
2019-04-01T06:37:12.389Z,1019.46
2019-04-01T06:38:12.403Z,1019.47
2019-04-01T06:39:12.417Z,1019.48
2019-04-01T06:40:12.441Z,1019.49
2019-04-01T06:41:12.447Z,1019.45
2019-04-01T06:42:12.461Z,1019.45
2019-04-01T06:43:12.475Z,1019.47
2019-04-01T06:44:12.485Z,1019.42
2019-04-01T06:45:12.501Z,1019.45
2019-04-01T06:46:12.520Z,1019.46
2019-04-01T06:47:12.530Z,1019.50
2019-04-01T06:48:12.541Z,1019.50
2019-04-01T06:49:12.556Z,1019.47
2019-04-01T06:50:12.572Z,1019.46
2019-04-01T06:51:12.588Z,1019.44
2019-04-01T06:52:12.600Z,1019.43
2019-04-01T06:53:12.614Z,1019.48
2019-04-01T06:54:12.628Z,1019.44
2019-04-01T06:55:12.640Z,1019.45
2019-04-01T06:56:12.664Z,1019.45
2019-04-01T06:57:12.671Z,1019.45
2019-04-01T06:58:12.683Z,1019.40
2019-04-01T06:59:12.700Z,1019.42
2019-04-01T07:00:12.713Z,1019.42
2019-04-01T07:01:12.727Z,1019.40
2019-04-01T07:02:12.750Z,1019.43
2019-04-01T07:03:12.757Z,1019.43
2019-04-01T07:04:12.770Z,1019.40
2019-04-01T07:05:12.916Z,1019.40
2019-04-01T07:06:12.799Z,1019.41
2019-04-01T07:07:19.235Z,1019.40
2019-04-01T07:08:12.828Z,1019.41
2019-04-01T07:09:12.840Z,1019.41
2019-04-01T07:10:12.856Z,1019.38
2019-04-01T07:11:12.869Z,1019.35
2019-04-01T07:12:12.884Z,1019.38
2019-04-01T07:14:12.941Z,1019.39
2019-04-01T07:15:12.929Z,1019.32
2019-04-01T07:16:15.760Z,1019.36
2019-04-01T07:17:12.958Z,1019.36
2019-04-01T07:18:12.972Z,1019.35
2019-04-01T07:19:12.985Z,1019.33
2019-04-01T07:20:13.001Z,1019.40
2019-04-01T07:21:13.017Z,1019.36
2019-04-01T07:22:13.032Z,1019.36
2019-04-01T07:23:13.047Z,1019.35
2019-04-01T07:24:13.058Z,1019.30
2019-04-01T07:25:13.077Z,1019.28
2019-04-01T07:26:13.092Z,1019.26
2019-04-01T07:27:13.106Z,1019.29
2019-04-01T07:28:13.118Z,1019.26
2019-04-01T07:29:13.140Z,1019.28
2019-04-01T07:30:13.146Z,1019.31
2019-04-01T07:31:13.161Z,1019.28
2019-04-01T07:32:14.672Z,1019.26
2019-04-01T07:33:13.202Z,1019.29
2019-04-01T07:34:13.209Z,1019.28
2019-04-01T07:35:13.221Z,1019.30
2019-04-01T07:36:13.237Z,1019.31
2019-04-01T07:37:13.503Z,1019.26
2019-04-01T07:38:13.269Z,1019.25
2019-04-01T07:39:13.294Z,1019.21
2019-04-01T07:40:14.100Z,1019.17
2019-04-01T07:41:13.314Z,1019.25
2019-04-01T07:42:13.326Z,1019.25
2019-04-01T07:43:14.998Z,1019.22
2019-04-01T07:44:13.356Z,1019.21
2019-04-01T07:45:13.373Z,1019.25
2019-04-01T07:46:13.387Z,1019.24
2019-04-01T07:47:13.407Z,1019.27
2019-04-01T07:48:13.421Z,1019.22
2019-04-01T07:49:13.432Z,1019.19
2019-04-01T07:50:15.007Z,1019.23
2019-04-01T07:51:13.548Z,1019.21
2019-04-01T07:52:13.482Z,1019.22
2019-04-01T07:53:13.495Z,1019.21
2019-04-01T07:54:13.515Z,1019.23
2019-04-01T07:55:13.524Z,1019.29
2019-04-01T07:56:13.542Z,1019.20
2019-04-01T07:57:13.557Z,1019.25
2019-04-01T07:58:13.577Z,1019.26
2019-04-01T07:59:13.587Z,1019.29
2019-04-01T08:00:13.604Z,1019.21
2019-04-01T08:01:13.628Z,1019.19
2019-04-01T08:02:13.636Z,1019.24
2019-04-01T08:03:13.648Z,1019.26
2019-04-01T08:04:13.664Z,1019.26
2019-04-01T08:05:13.686Z,1019.22
2019-04-01T08:06:13.697Z,1019.24
2019-04-01T08:07:13.851Z,1019.29
2019-04-01T08:08:13.728Z,1019.23
2019-04-01T08:09:13.742Z,1019.31
2019-04-01T08:10:13.760Z,1019.32
2019-04-01T08:11:13.774Z,1019.29
2019-04-01T08:12:13.795Z,1019.25
2019-04-01T08:13:13.820Z,1019.32
2019-04-01T08:14:13.821Z,1019.28
2019-04-01T08:15:13.846Z,1019.27
2019-04-01T08:16:13.853Z,1019.28
2019-04-01T08:17:13.876Z,1019.23
2019-04-01T08:18:13.887Z,1019.25
2019-04-01T08:19:13.910Z,1019.27
2019-04-01T08:20:13.918Z,1019.28
2019-04-01T08:21:13.938Z,1019.22
2019-04-01T08:22:13.952Z,1019.29
2019-04-01T08:23:13.971Z,1019.25
2019-04-01T08:24:13.987Z,1019.21
2019-04-01T08:25:14.006Z,1019.24
2019-04-01T08:26:14.013Z,1019.22
2019-04-01T08:27:14.031Z,1019.20
2019-04-01T08:28:14.046Z,1019.18
2019-04-01T08:29:28.969Z,1019.19
2019-04-01T08:30:14.078Z,1019.19
2019-04-01T08:31:14.094Z,1019.22
2019-04-01T08:32:14.394Z,1019.21
2019-04-01T08:33:14.126Z,1019.19
2019-04-01T08:34:14.140Z,1019.22
2019-04-01T08:35:14.158Z,1019.23
2019-04-01T08:36:14.174Z,1019.25
2019-04-01T08:37:14.191Z,1019.20
2019-04-01T08:38:14.214Z,1019.20
2019-04-01T08:39:14.222Z,1019.11
2019-04-01T08:40:14.245Z,1019.18
2019-04-01T08:41:14.262Z,1019.16
2019-04-01T08:42:14.272Z,1019.08
2019-04-01T08:43:14.290Z,1019.15
2019-04-01T08:44:14.303Z,1019.11
2019-04-01T08:45:14.321Z,1019.11
2019-04-01T08:46:14.339Z,1019.12
2019-04-01T08:47:14.361Z,1019.06
2019-04-01T08:48:14.375Z,1019.03
2019-04-01T08:49:14.387Z,1019.08
2019-04-01T08:50:14.408Z,1019.07
2019-04-01T08:51:14.426Z,1019.11
2019-04-01T08:52:14.436Z,1019.09
2019-04-01T08:53:14.456Z,1019.01
2019-04-01T08:54:14.471Z,1019.01
2019-04-01T08:55:14.493Z,1019.03
2019-04-01T08:56:14.507Z,1019.02
2019-04-01T08:57:14.530Z,1019.01
2019-04-01T08:58:14.543Z,1019.01
2019-04-01T08:59:14.554Z,1018.99
2019-04-01T09:00:14.568Z,1018.98
2019-04-01T09:01:14.591Z,1018.96
2019-04-01T09:02:18.096Z,1018.95
2019-04-01T09:03:14.621Z,1018.88
2019-04-01T09:04:14.635Z,1018.91
2019-04-01T09:05:14.652Z,1018.86
2019-04-01T09:06:14.670Z,1018.87
2019-04-01T09:07:14.690Z,1018.88
2019-04-01T09:08:14.705Z,1018.91
2019-04-01T09:09:14.721Z,1018.90
2019-04-01T09:10:14.744Z,1018.89
2019-04-01T09:11:14.761Z,1018.87
2019-04-01T09:12:14.775Z,1018.87
2019-04-01T09:13:14.798Z,1018.90
2019-04-01T09:14:14.815Z,1018.87
2019-04-01T09:15:14.825Z,1018.83
2019-04-01T09:16:14.842Z,1018.85
2019-04-01T09:17:14.860Z,1018.85
2019-04-01T09:18:14.879Z,1018.86
2019-04-01T09:19:14.899Z,1018.76
2019-04-01T09:20:14.918Z,1018.77
2019-04-01T09:21:14.926Z,1018.75
2019-04-01T09:22:14.946Z,1018.72
2019-04-01T09:23:14.966Z,1018.75
2019-04-01T09:24:14.980Z,1018.65
2019-04-01T09:25:15.080Z,1018.72
2019-04-01T09:26:15.017Z,1018.67
2019-04-01T09:27:15.031Z,1018.71
2019-04-01T09:28:15.051Z,1018.71
2019-04-01T09:29:15.068Z,1018.66
2019-04-01T09:30:18.516Z,1018.65
2019-04-01T09:31:15.103Z,1018.63
2019-04-01T09:32:15.130Z,1018.64
2019-04-01T09:33:15.138Z,1018.63
2019-04-01T09:34:15.161Z,1018.64
2019-04-01T09:35:15.172Z,1018.61
2019-04-01T09:36:15.191Z,1018.58
2019-04-01T09:37:15.208Z,1018.60
2019-04-01T09:38:15.226Z,1018.59
2019-04-01T09:39:15.244Z,1018.55
2019-04-01T09:40:15.260Z,1018.56
2019-04-01T09:41:15.279Z,1018.57
2019-04-01T09:42:15.296Z,1018.50
2019-04-01T09:43:15.313Z,1018.49
2019-04-01T09:44:15.330Z,1018.41
2019-04-01T09:45:15.351Z,1018.44
2019-04-01T09:46:15.368Z,1018.44
2019-04-01T09:47:15.384Z,1018.41
2019-04-01T09:48:15.403Z,1018.45
2019-04-01T09:49:15.421Z,1018.38
2019-04-01T09:50:15.438Z,1018.43
2019-04-01T09:51:15.462Z,1018.36
2019-04-01T09:52:15.484Z,1018.35
2019-04-01T09:53:15.493Z,1018.31
2019-04-01T09:54:15.511Z,1018.31
2019-04-01T09:55:15.537Z,1018.33
2019-04-01T09:56:15.547Z,1018.31
2019-04-01T09:57:18.339Z,1018.37
2019-04-01T09:58:15.587Z,1018.30
2019-04-01T09:59:15.604Z,1018.32
2019-04-01T10:00:15.618Z,1018.33
2019-04-01T10:01:15.637Z,1018.30
2019-04-01T10:02:15.703Z,1018.33
2019-04-01T10:03:15.672Z,1018.30
2019-04-01T10:04:15.689Z,1018.27
2019-04-01T10:05:15.707Z,1018.18
2019-04-01T10:06:15.725Z,1018.22
2019-04-01T10:07:15.823Z,1018.19
2019-04-01T10:08:15.761Z,1018.13
2019-04-01T10:09:15.779Z,1018.09
2019-04-01T10:10:15.875Z,1018.11
2019-04-01T10:11:15.818Z,1018.05
2019-04-01T10:12:15.837Z,1018.09
2019-04-01T10:13:15.851Z,1018.03
2019-04-01T10:14:15.867Z,1018.04
2019-04-01T10:15:15.888Z,1018.08
2019-04-01T10:16:15.911Z,1017.98
2019-04-01T10:17:15.921Z,1017.99
2019-04-01T10:18:15.939Z,1017.98
2019-04-01T10:19:15.960Z,1017.95
2019-04-01T10:20:15.978Z,1017.91
2019-04-01T10:21:15.996Z,1017.94
2019-04-01T10:22:16.012Z,1017.90
2019-04-01T10:23:16.035Z,1017.84
2019-04-01T10:24:16.051Z,1017.91
2019-04-01T10:25:16.066Z,1017.95
2019-04-01T10:26:16.093Z,1017.85
2019-04-01T10:27:16.112Z,1017.83
2019-04-01T10:28:16.123Z,1017.84
2019-04-01T10:29:16.141Z,1017.78
2019-04-01T10:30:16.159Z,1017.77
2019-04-01T10:31:16.180Z,1017.82
2019-04-01T10:32:16.192Z,1017.73
2019-04-01T10:33:16.217Z,1017.72
2019-04-01T10:34:16.382Z,1017.68
2019-04-01T10:35:16.251Z,1017.70
2019-04-01T10:36:16.266Z,1017.72
2019-04-01T10:37:16.298Z,1017.66
2019-04-01T10:38:16.306Z,1017.66
2019-04-01T10:39:16.323Z,1017.63
2019-04-01T10:40:16.338Z,1017.68
2019-04-01T10:41:16.360Z,1017.61
2019-04-01T10:42:16.375Z,1017.58
2019-04-01T10:43:16.396Z,1017.56
2019-04-01T10:44:16.415Z,1017.49
2019-04-01T10:45:16.431Z,1017.49
2019-04-01T10:46:16.455Z,1017.53
2019-04-01T10:47:16.475Z,1017.47
2019-04-01T10:48:16.520Z,1017.37
2019-04-01T10:49:16.527Z,1017.45
2019-04-01T10:50:16.539Z,1017.51
2019-04-01T10:51:16.580Z,1017.50
2019-04-01T10:52:16.586Z,1017.51
2019-04-01T10:53:16.659Z,1017.47
2019-04-01T10:54:16.671Z,1017.43
2019-04-01T10:55:16.673Z,1017.43
2019-04-01T10:56:16.634Z,1017.43
2019-04-01T10:57:16.687Z,1017.43
2019-04-01T10:58:16.672Z,1017.36
2019-04-01T10:59:16.719Z,1017.44
2019-04-01T11:00:16.717Z,1017.32
2019-04-01T11:01:16.751Z,1017.29
2019-04-01T11:02:18.384Z,1017.36
2019-04-01T11:03:16.828Z,1017.37
2019-04-01T11:04:16.824Z,1017.34
2019-04-01T11:05:16.834Z,1017.38
2019-04-01T11:06:16.818Z,1017.37
2019-04-01T11:07:16.897Z,1017.30
2019-04-01T11:08:17.013Z,1017.33
2019-04-01T11:09:17.019Z,1017.25
2019-04-01T11:10:16.891Z,1017.25
2019-04-01T11:11:16.913Z,1017.26
2019-04-01T11:12:16.927Z,1017.26
2019-04-01T11:13:16.957Z,1017.27
2019-04-01T11:14:16.967Z,1017.27
2019-04-01T11:15:17.238Z,1017.22
2019-04-01T11:16:17.190Z,1017.25
2019-04-01T11:17:17.035Z,1017.22
2019-04-01T11:18:17.042Z,1017.20
2019-04-01T11:19:17.064Z,1017.17
2019-04-01T11:20:17.083Z,1017.17
2019-04-01T11:21:17.095Z,1017.25
2019-04-01T11:22:17.121Z,1017.23
2019-04-01T11:23:17.134Z,1017.17
2019-04-01T11:24:17.166Z,1017.16
2019-04-01T11:25:17.202Z,1017.12
2019-04-01T11:26:17.189Z,1017.14
2019-04-01T11:27:17.205Z,1017.09
2019-04-01T11:28:17.226Z,1017.15
2019-04-01T11:29:17.248Z,1017.10
2019-04-01T11:30:17.301Z,1017.14
2019-04-01T11:31:17.287Z,1017.09
2019-04-01T11:32:17.354Z,1017.06
2019-04-01T11:33:17.316Z,1017.10
2019-04-01T11:34:17.353Z,1017.01
2019-04-01T11:35:17.425Z,1017.02
2019-04-01T11:36:17.374Z,1017.01
2019-04-01T11:37:17.512Z,1017.00
2019-04-01T11:38:17.409Z,1017.00
2019-04-01T11:39:17.491Z,1016.97
2019-04-01T11:40:17.460Z,1016.99
2019-04-01T11:41:17.501Z,1017.02
2019-04-01T11:42:17.483Z,1016.98
2019-04-01T11:43:17.519Z,1016.98
2019-04-01T11:44:17.566Z,1017.01
2019-04-01T11:45:17.564Z,1016.95
2019-04-01T11:46:17.596Z,1016.87
2019-04-01T11:47:17.635Z,1016.87
2019-04-01T11:48:17.699Z,1016.86
2019-04-01T11:49:17.657Z,1016.80
2019-04-01T11:50:17.668Z,1016.88
2019-04-01T11:51:31.860Z,1016.85
2019-04-01T11:52:17.679Z,1016.79
2019-04-01T11:53:17.686Z,1016.84
2019-04-01T11:54:17.704Z,1016.78
2019-04-01T11:55:17.731Z,1016.79
2019-04-01T11:56:17.741Z,1016.76
2019-04-01T11:57:17.765Z,1016.78
2019-04-01T11:58:17.798Z,1016.72
2019-04-01T11:59:17.804Z,1016.75
2019-04-01T12:00:17.822Z,1016.69
2019-04-01T12:01:17.835Z,1016.70
2019-04-01T12:02:17.859Z,1016.64
2019-04-01T12:03:17.874Z,1016.64
2019-04-01T12:04:17.892Z,1016.58
2019-04-01T12:05:17.915Z,1016.63
2019-04-01T12:06:17.935Z,1016.65